Latest Weather Observations for Double Island Point

IDQ60801

Issued at 11:32 pm EST Tuesday 27 September 2016 (issued every 30 minutes, with the page automatically refreshed every 10 minutes)

About weather observations | Map of weather stations | Latest weather observations for QLD | Other Formats
Station Details ID: 040068 Name: DOUBLE ISLAND POINT LIGHTHOUSE Lat: -25.93 Lon: 153.19 Height: 95.64 m
Data from the previous 72 hours. | See also: Recent months at Double Island Point
Date/Time
EST
Temp
°C
App
Temp
°C
Dew
Point
°C
Rel
Hum
%
Delta-T
°C
Wind Press
QNH
hPa
Press
MSL
hPa
Rain since
9am
mm
Dir  Spd
km/h
Gust
km/h
Spd
kts
Gust
kts
27/11:30pm - - - - - WSW 28 35 15 19 1013.1 1012.9 0.0
27/11:00pm - - - - - W 26 32 14 17 1013.2 1013.0 0.0
27/10:30pm - - - - - W 24 32 13 17 1013.6 1013.3 0.0
27/10:00pm - - - - - W 22 32 12 17 1013.6 1013.3 0.0
27/09:30pm - - - - - W 17 32 9 17 1013.8 1013.5 0.0
27/09:00pm - - - - - WNW 20 28 11 15 1013.8 1013.5 0.0
27/08:30pm - - - - - WNW 19 26 10 14 1013.8 1013.5 0.0
27/08:00pm - - - - - NW 20 28 11 15 1013.6 1013.3 0.0
27/07:30pm - - - - - NNW 17 20 9 11 1013.3 1013.1 0.0
27/07:00pm - - - - - NNW 13 19 7 10 1013.2 1013.0 0.0
27/06:30pm - - - - - NNW 7 13 4 7 1013.1 1012.9 0.0
27/06:00pm - - - - - N 6 7 3 4 1012.7 1012.5 0.0
27/05:30pm - - - - - E 6 9 3 5 1012.5 1012.3 0.0
27/05:00pm - - - - - SE 13 17 7 9 1012.2 1012.0 0.0
27/04:30pm - - - - - SSE 15 17 8 9 1012.1 1011.9 0.0
27/04:00pm - - - - - SE 17 19 9 10 1011.9 1011.6 0.0
27/03:30pm - - - - - SE 17 20 9 11 1012.0 1011.8 0.0
27/03:00pm - - - - - SSE 13 19 7 10 1012.1 1011.9 0.0
27/02:30pm - - - - - SSE 24 28 13 15 1012.2 1012.0 0.0
27/02:00pm - - - - - SE 24 28 13 15 1012.0 1011.8 0.0
27/01:30pm - - - - - SSE 20 24 11 13 1012.7 1012.5 0.0
27/01:00pm - - - - - SE 17 22 9 12 1013.1 1012.9 0.0
27/12:30pm - - - - - SE 19 24 10 13 1013.3 1013.1 0.0
27/12:00pm - - - - - SSE 20 24 11 13 1013.9 1013.6 0.0
27/11:30am - - - - - SSE 20 24 11 13 1014.0 1013.7 0.0
27/11:00am - - - - - SSE 24 33 13 18 1014.6 1014.3 0.0
27/10:30am - - - - - S 30 35 16 19 1014.7 1014.4 0.0
27/10:00am - - - - - SSE 26 32 14 17 1015.0 1014.7 0.0
27/09:30am - - - - - S 30 35 16 19 1014.6 1014.3 0.0
27/09:00am - - - - - S 20 33 11 18 1015.1 1014.8 0.0
27/08:30am - - - - - SSW 20 32 11 17 1014.9 1014.6 0.0
27/08:00am - - - - - WSW 11 19 6 10 1014.6 1014.3 0.0
27/07:30am - - - - - WSW 19 28 10 15 1014.2 1013.9 0.0
27/07:00am - - - - - SSW 22 32 12 17 1013.5 1013.2 0.0
27/06:30am - - - - - SSW 20 24 11 13 1013.7 1013.4 0.0
27/06:00am - - - - - SSW 19 22 10 12 1013.3 1013.1 0.0
27/05:30am - - - - - SW 15 19 8 10 1012.9 1012.7 0.0
27/05:00am - - - - - SW 20 26 11 14 1012.8 1012.6 0.0
27/04:30am - - - - - SSW 26 32 14 17 1012.4 1012.2 0.0
27/04:00am - - - - - SSW 22 28 12 15 1012.3 1012.1 0.0
27/03:30am - - - - - SSW 22 26 12 14 1011.8 1011.5 0.0
27/03:00am - - - - - SSW 24 32 13 17 1011.8 1011.5 0.0
27/02:30am - - - - - SSW 32 41 17 22 1012.0 1011.8 0.0
27/02:00am - - - - - WSW 22 32 12 17 1012.1 1011.9 0.0
27/01:30am - - - - - W 22 30 12 16 1012.3 1012.1 0.0
27/01:00am - - - - - WNW 26 32 14 17 1012.2 1012.0 0.0
27/12:30am - - - - - WNW 24 32 13 17 1012.2 1012.0 0.0
27/12:00am - - - - - WNW 26 33 14 18 1012.7 1012.5 0.0
 
Date/Time
EST
Temp
°C
App
Temp
°C
Dew
Point
°C
Rel
Hum
%
Delta-T
°C
Wind Press
QNH
hPa
Press
MSL
hPa
Rain since
9am
mm
Dir  Spd
km/h
Gust
km/h
Spd
kts
Gust
kts
26/11:30pm - - - - - WNW 30 35 16 19 1012.7 1012.5 0.0
26/11:00pm - - - - - NW 30 35 16 19 1013.1 1012.9 0.0
26/10:30pm - - - - - WNW 28 35 15 19 1013.3 1013.1 0.0
26/10:00pm - - - - - NW 24 28 13 15 1013.3 1013.1 0.0
26/09:30pm - - - - - NW 20 24 11 13 1013.0 1012.8 0.0
26/09:00pm - - - - - NNW 11 19 6 10 1012.8 1012.6 0.0
26/08:30pm - - - - - N 7 11 4 6 1012.6 1012.4 0.0
26/08:00pm - - - - - N 7 15 4 8 1012.3 1012.1 0.0
26/07:30pm - - - - - N 13 20 7 11 1012.0 1011.8 0.0
26/07:00pm - - - - - N 19 24 10 13 1011.9 1011.6 0.0
26/06:30pm - - - - - N 20 26 11 14 1011.5 1011.2 0.0
26/06:00pm - - - - - NNE 20 24 11 13 1011.3 1011.0 0.0
26/05:30pm - - - - - NNE 15 22 8 12 1011.1 1010.8 0.0
26/05:00pm - - - - - NE 15 20 8 11 1010.8 1010.5 0.0
26/04:30pm - - - - - NE 17 20 9 11 1010.6 1010.3 0.0
26/04:00pm - - - - - ENE 17 22 9 12 1010.3 1010.0 0.0
26/03:30pm - - - - - ENE 17 20 9 11 1010.5 1010.2 0.0
26/03:00pm - - - - - E 20 24 11 13 1010.3 1010.0 0.0
26/02:30pm - - - - - E 22 26 12 14 1010.2 1009.9 0.0
26/02:00pm - - - - - E 20 24 11 13 1010.6 1010.3 0.0
26/01:30pm - - - - - ESE 20 24 11 13 1011.2 1010.9 0.0
26/01:00pm - - - - - ESE 20 24 11 13 1011.6 1011.3 0.0
26/12:30pm - - - - - SE 22 26 12 14 1012.1 1011.9 0.0
26/12:00pm - - - - - SE 24 26 13 14 1012.2 1012.0 0.0
26/11:30am - - - - - SE 24 28 13 15 1012.6 1012.4 0.0
26/11:00am - - - - - SSE 28 35 15 19 1013.0 1012.8 0.0
26/10:30am - - - - - SSE 28 37 15 20 1013.3 1013.1 0.0
26/10:00am - - - - - S 32 39 17 21 1013.3 1013.1 0.0
26/09:30am - - - - - S 33 39 18 21 1013.1 1012.9 0.0
26/09:00am - - - - - S 33 43 18 23 1013.2 1013.0 0.2
26/08:30am - - - - - S 30 39 16 21 1013.2 1013.0 0.2
26/08:00am - - - - - S 32 44 17 24 1013.2 1013.0 0.2
26/07:30am - - - - - SSW 32 48 17 26 1013.3 1013.1 0.2
26/07:00am - - - - - SSW 30 39 16 21 1012.9 1012.7 0.2
26/06:30am - - - - - SSW 22 28 12 15 1012.6 1012.4 0.2
26/06:00am - - - - - S 15 20 8 11 1012.1 1011.9 0.2
26/05:30am - - - - - S 19 28 10 15 1011.8 1011.5 0.2
26/05:00am - - - - - SSW 19 24 10 13 1011.5 1011.2 0.2
26/04:30am - - - - - SSW 22 30 12 16 1011.2 1010.9 0.2
26/04:00am - - - - - SSW 28 37 15 20 1010.8 1010.5 0.2
26/03:30am - - - - - SSW 26 33 14 18 1010.6 1010.3 0.2
26/03:00am - - - - - SSW 28 33 15 18 1010.4 1010.1 0.2
26/02:30am - - - - - SSW 33 41 18 22 1010.2 1009.9 0.2
26/02:00am - - - - - SSW 30 43 16 23 1010.4 1010.1 0.2
26/01:30am - - - - - SSW 33 39 18 21 1010.6 1010.3 0.2
26/01:00am - - - - - SSW 26 30 14 16 1010.7 1010.4 0.2
26/12:30am - - - - - SSW 22 28 12 15 1010.8 1010.5 0.2
26/12:00am - - - - - S 22 28 12 15 1010.8 1010.5 0.2
 
Date/Time
EST
Temp
°C
App
Temp
°C
Dew
Point
°C
Rel
Hum
%
Delta-T
°C
Wind Press
QNH
hPa
Press
MSL
hPa
Rain since
9am
mm
Dir  Spd
km/h
Gust
km/h
Spd
kts
Gust
kts
25/11:30pm - - - - - S 24 30 13 16 1010.7 1010.4 0.2
25/11:00pm - - - - - S 22 24 12 13 1010.9 1010.6 0.2
25/10:30pm - - - - - SSW 24 32 13 17 1010.8 1010.5 0.2
25/10:00pm - - - - - SSW 24 30 13 16 1010.6 1010.3 0.2
25/09:30pm - - - - - SW 22 30 12 16 1010.3 1010.0 0.2
25/09:00pm - - - - - SW 20 32 11 17 1010.1 1009.8 0.2
25/08:30pm - - - - - W 17 20 9 11 1009.9 1009.6 0.2
25/08:00pm - - - - - WNW 20 24 11 13 1009.5 1009.2 0.2
25/07:30pm - - - - - W 22 28 12 15 1008.9 1008.6 0.2
25/07:00pm - - - - - NW 19 20 10 11 1008.2 1007.9 0.2
25/06:30pm - - - - - NW 17 19 9 10 1007.8 1007.5 0.2
25/06:00pm - - - - - NNW 13 17 7 9 1007.2 1006.9 0.2
25/05:30pm - - - - - NNW 11 15 6 8 1006.7 1006.4 0.2
25/05:00pm - - - - - NNE 11 15 6 8 1006.3 1006.0 0.2
25/04:30pm - - - - - NE 13 19 7 10 1006.1 1005.8 0.2
25/04:00pm - - - - - ENE 13 17 7 9 1006.0 1005.7 0.2
25/03:30pm - - - - - NE 9 17 5 9 1006.1 1005.8 0.2
25/03:00pm - - - - - NE 7 19 4 10 1006.0 1005.7 0.2
25/02:30pm - - - - - NNE 19 26 10 14 1005.7 1005.4 0.2
25/02:00pm - - - - - NNE 11 19 6 10 1005.7 1005.4 0.2
25/01:30pm - - - - - N 11 17 6 9 1005.6 1005.3 0.0
25/01:00pm - - - - - NNE 15 24 8 13 1006.2 1005.9 0.0
25/12:30pm - - - - - NNE 15 22 8 12 1006.8 1006.5 0.0
25/12:00pm - - - - - NNE 11 17 6 9 1007.3 1007.0 0.0
25/11:30am - - - - - N 9 13 5 7 1008.2 1007.9 0.0
25/11:00am - - - - - NW 6 13 3 7 1008.5 1008.2 0.0
25/10:30am - - - - - S 7 13 4 7 1009.0 1008.7 0.0
25/10:00am - - - - - NNW 11 17 6 9 1009.6 1009.3 0.0
25/09:30am - - - - - WNW 19 24 10 13 1009.7 1009.4 0.0
25/09:00am - - - - - NW 22 28 12 15 1010.0 1009.7 0.0
25/08:30am - - - - - WNW 24 30 13 16 1010.0 1009.7 0.0
25/08:00am - - - - - WNW 26 32 14 17 1010.3 1010.0 0.0
25/07:30am - - - - - W 20 30 11 16 1010.3 1010.0 0.0
25/07:00am - - - - - WNW 28 35 15 19 1010.0 1009.7 0.0
25/06:30am - - - - - WNW 24 30 13 16 1009.4 1009.1 0.0
25/06:00am - - - - - WNW 24 30 13 16 1009.0 1008.7 0.0
25/05:30am - - - - - NW 17 20 9 11 1008.9 1008.6 0.0
25/05:00am - - - - - NW 17 20 9 11 1008.7 1008.4 0.0
25/04:30am - - - - - NW 19 22 10 12 1008.3 1008.0 0.0
25/04:00am - - - - - NW 19 20 10 11 1008.3 1008.0 0.0
25/03:30am - - - - - NW 17 20 9 11 1008.4 1008.1 0.0
25/03:00am - - - - - NW 15 20 8 11 1008.6 1008.3 0.0
25/02:30am - - - - - NNW 13 17 7 9 1008.8 1008.5 0.0
25/02:00am - - - - - NNW 7 13 4 7 1008.8 1008.5 0.0
25/01:30am - - - - - NNW 15 20 8 11 1009.1 1008.8 0.0
25/01:00am - - - - - NNW 15 20 8 11 1009.2 1008.9 0.0
25/12:30am - - - - - NNW 9 15 5 8 1009.5 1009.2 0.0
25/12:00am - - - - - NNW 9 17 5 9 1009.7 1009.4 0.0

Other Formats:

Comma delimited format used in spreadsheet applications
http://www.bom.gov.au/fwo/IDQ60801/IDQ60801.94584.axf

JavaScript Object Notation format (JSON) in row-major order
http://www.bom.gov.au/fwo/IDQ60801/IDQ60801.94584.json